sensor_id;sensor_type;location;lat;lon;timestamp;temperature;humidity
73149;SHT30;61346;48.930;2.266;2022-09-09T00:03:43;17.14;71.14
73149;SHT30;61346;48.930;2.266;2022-09-09T00:06:21;17.15;71.12
73149;SHT30;61346;48.930;2.266;2022-09-09T00:09:21;17.18;70.89
73149;SHT30;61346;48.930;2.266;2022-09-09T00:11:54;17.16;70.96
73149;SHT30;61346;48.930;2.266;2022-09-09T00:22:57;17.18;71.12
73149;SHT30;61346;48.930;2.266;2022-09-09T00:28:59;17.15;70.79
73149;SHT30;61346;48.930;2.266;2022-09-09T00:31:30;17.14;70.86
73149;SHT30;61346;48.930;2.266;2022-09-09T00:34:23;17.11;71.07
73149;SHT30;61346;48.930;2.266;2022-09-09T00:36:52;17.11;70.93
73149;SHT30;61346;48.930;2.266;2022-09-09T00:39:31;17.10;71.28
73149;SHT30;61346;48.930;2.266;2022-09-09T00:44:34;17.12;71.57
73149;SHT30;61346;48.930;2.266;2022-09-09T00:47:29;17.14;71.18
73149;SHT30;61346;48.930;2.266;2022-09-09T00:49:59;17.15;71.27
73149;SHT30;61346;48.930;2.266;2022-09-09T00:52:36;17.19;71.06
73149;SHT30;61346;48.930;2.266;2022-09-09T00:57:38;17.14;70.72
73149;SHT30;61346;48.930;2.266;2022-09-09T01:00:20;17.14;70.90
73149;SHT30;61346;48.930;2.266;2022-09-09T01:05:51;17.10;71.56
73149;SHT30;61346;48.930;2.266;2022-09-09T01:10:56;17.11;71.53
73149;SHT30;61346;48.930;2.266;2022-09-09T01:13:32;17.11;71.86
73149;SHT30;61346;48.930;2.266;2022-09-09T01:16:00;17.16;71.50
73149;SHT30;61346;48.930;2.266;2022-09-09T01:18:32;17.21;71.43
73149;SHT30;61346;48.930;2.266;2022-09-09T01:26:39;17.23;71.28
73149;SHT30;61346;48.930;2.266;2022-09-09T01:29:13;17.26;71.51
73149;SHT30;61346;48.930;2.266;2022-09-09T01:34:16;17.28;71.24
73149;SHT30;61346;48.930;2.266;2022-09-09T01:36:48;17.28;71.81
73149;SHT30;61346;48.930;2.266;2022-09-09T01:39:16;17.29;72.03
73149;SHT30;61346;48.930;2.266;2022-09-09T01:41:42;17.32;72.01
73149;SHT30;61346;48.930;2.266;2022-09-09T01:44:08;17.38;71.98
73149;SHT30;61346;48.930;2.266;2022-09-09T01:46:34;17.42;71.75
73149;SHT30;61346;48.930;2.266;2022-09-09T01:49:02;17.45;71.65
73149;SHT30;61346;48.930;2.266;2022-09-09T01:51:29;17.45;71.63
73149;SHT30;61346;48.930;2.266;2022-09-09T01:53:55;17.49;71.37
73149;SHT30;61346;48.930;2.266;2022-09-09T02:01:46;17.49;71.43
73149;SHT30;61346;48.930;2.266;2022-09-09T02:07:02;17.40;71.38
73149;SHT30;61346;48.930;2.266;2022-09-09T02:09:30;17.38;71.26
73149;SHT30;61346;48.930;2.266;2022-09-09T02:12:04;17.36;71.40
73149;SHT30;61346;48.930;2.266;2022-09-09T02:14:36;17.32;71.39
73149;SHT30;61346;48.930;2.266;2022-09-09T02:17:11;17.28;71.38
73149;SHT30;61346;48.930;2.266;2022-09-09T02:19:46;17.25;71.36
73149;SHT30;61346;48.930;2.266;2022-09-09T02:22:17;17.22;71.45
73149;SHT30;61346;48.930;2.266;2022-09-09T02:24:44;17.19;71.46
73149;SHT30;61346;48.930;2.266;2022-09-09T02:27:11;17.19;71.15
73149;SHT30;61346;48.930;2.266;2022-09-09T02:29:41;17.16;71.65
73149;SHT30;61346;48.930;2.266;2022-09-09T02:32:13;17.15;71.83
73149;SHT30;61346;48.930;2.266;2022-09-09T02:34:43;17.14;71.96
73149;SHT30;61346;48.930;2.266;2022-09-09T02:37:13;17.11;72.07
73149;SHT30;61346;48.930;2.266;2022-09-09T02:39:40;17.15;72.15
73149;SHT30;61346;48.930;2.266;2022-09-09T02:42:05;17.21;72.12
73149;SHT30;61346;48.930;2.266;2022-09-09T02:44:36;17.29;72.09
73149;SHT30;61346;48.930;2.266;2022-09-09T02:47:34;17.38;72.17
73149;SHT30;61346;48.930;2.266;2022-09-09T02:50:22;17.43;72.24
73149;SHT30;61346;48.930;2.266;2022-09-09T02:53:24;17.50;72.22
73149;SHT30;61346;48.930;2.266;2022-09-09T02:55:58;17.56;72.09
73149;SHT30;61346;48.930;2.266;2022-09-09T02:58:26;17.60;71.96
73149;SHT30;61346;48.930;2.266;2022-09-09T03:00:52;17.65;71.91
73149;SHT30;61346;48.930;2.266;2022-09-09T03:03:19;17.71;71.72
73149;SHT30;61346;48.930;2.266;2022-09-09T03:05:46;17.73;71.65
73149;SHT30;61346;48.930;2.266;2022-09-09T03:08:11;17.71;71.49
73149;SHT30;61346;48.930;2.266;2022-09-09T03:10:38;17.67;71.40
73149;SHT30;61346;48.930;2.266;2022-09-09T03:13:04;17.62;71.28
73149;SHT30;61346;48.930;2.266;2022-09-09T03:15:31;17.60;71.26
73149;SHT30;61346;48.930;2.266;2022-09-09T03:17:58;17.54;71.31
73149;SHT30;61346;48.930;2.266;2022-09-09T03:20:25;17.49;71.39
73149;SHT30;61346;48.930;2.266;2022-09-09T03:22:52;17.49;71.33
73149;SHT30;61346;48.930;2.266;2022-09-09T03:25:18;17.45;71.40
73149;SHT30;61346;48.930;2.266;2022-09-09T03:27:44;17.43;71.54
73149;SHT30;61346;48.930;2.266;2022-09-09T03:30:09;17.39;71.54
73149;SHT30;61346;48.930;2.266;2022-09-09T03:32:35;17.40;71.36
73149;SHT30;61346;48.930;2.266;2022-09-09T03:35:01;17.40;71.39
73149;SHT30;61346;48.930;2.266;2022-09-09T03:37:26;17.39;71.46
73149;SHT30;61346;48.930;2.266;2022-09-09T03:39:52;17.36;71.54
73149;SHT30;61346;48.930;2.266;2022-09-09T03:42:21;17.33;71.67
73149;SHT30;61346;48.930;2.266;2022-09-09T03:44:47;17.32;71.54
73149;SHT30;61346;48.930;2.266;2022-09-09T03:47:19;17.32;71.47
73149;SHT30;61346;48.930;2.266;2022-09-09T03:49:45;17.29;71.69
73149;SHT30;61346;48.930;2.266;2022-09-09T03:52:11;17.31;71.73
73149;SHT30;61346;48.930;2.266;2022-09-09T03:54:36;17.28;71.89
73149;SHT30;61346;48.930;2.266;2022-09-09T03:57:03;17.29;71.66
73149;SHT30;61346;48.930;2.266;2022-09-09T03:59:29;17.26;71.86
73149;SHT30;61346;48.930;2.266;2022-09-09T04:01:55;17.26;71.89
73149;SHT30;61346;48.930;2.266;2022-09-09T04:04:22;17.23;71.88
73149;SHT30;61346;48.930;2.266;2022-09-09T04:06:47;17.22;71.98
73149;SHT30;61346;48.930;2.266;2022-09-09T04:09:16;17.19;72.08
73149;SHT30;61346;48.930;2.266;2022-09-09T04:11:41;17.22;71.87
73149;SHT30;61346;48.930;2.266;2022-09-09T04:14:14;17.19;71.97
73149;SHT30;61346;48.930;2.266;2022-09-09T04:16:42;17.16;72.25
73149;SHT30;61346;48.930;2.266;2022-09-09T04:19:12;17.18;72.01
73149;SHT30;61346;48.930;2.266;2022-09-09T04:21:39;17.19;71.86
73149;SHT30;61346;48.930;2.266;2022-09-09T04:24:06;17.18;71.96
73149;SHT30;61346;48.930;2.266;2022-09-09T04:26:32;17.16;71.75
73149;SHT30;61346;48.930;2.266;2022-09-09T04:28:58;17.18;71.94
73149;SHT30;61346;48.930;2.266;2022-09-09T04:31:24;17.18;71.90
73149;SHT30;61346;48.930;2.266;2022-09-09T04:33:53;17.16;72.05
73149;SHT30;61346;48.930;2.266;2022-09-09T04:36:21;17.15;72.02
73149;SHT30;61346;48.930;2.266;2022-09-09T04:38:47;17.16;72.08
73149;SHT30;61346;48.930;2.266;2022-09-09T04:41:14;17.14;72.12
73149;SHT30;61346;48.930;2.266;2022-09-09T04:43:42;17.12;72.12
73149;SHT30;61346;48.930;2.266;2022-09-09T04:46:07;17.11;72.20
73149;SHT30;61346;48.930;2.266;2022-09-09T04:48:33;17.10;72.21
73149;SHT30;61346;48.930;2.266;2022-09-09T04:51:01;17.08;72.48
73149;SHT30;61346;48.930;2.266;2022-09-09T04:53:27;17.08;72.32
73149;SHT30;61346;48.930;2.266;2022-09-09T04:56:14;17.07;72.33
73149;SHT30;61346;48.930;2.266;2022-09-09T04:58:40;17.05;72.40
73149;SHT30;61346;48.930;2.266;2022-09-09T05:01:14;17.04;72.36
73149;SHT30;61346;48.930;2.266;2022-09-09T05:03:41;17.08;72.28
73149;SHT30;61346;48.930;2.266;2022-09-09T05:06:09;17.07;72.15
73149;SHT30;61346;48.930;2.266;2022-09-09T05:08:39;17.10;72.34
73149;SHT30;61346;48.930;2.266;2022-09-09T05:11:27;17.12;72.54
73149;SHT30;61346;48.930;2.266;2022-09-09T05:13:54;17.11;72.45
73149;SHT30;61346;48.930;2.266;2022-09-09T05:16:21;17.15;72.55
73149;SHT30;61346;48.930;2.266;2022-09-09T05:18:48;17.22;72.57
73149;SHT30;61346;48.930;2.266;2022-09-09T05:21:18;17.28;72.53
73149;SHT30;61346;48.930;2.266;2022-09-09T05:23:47;17.33;72.40
73149;SHT30;61346;48.930;2.266;2022-09-09T05:26:17;17.39;72.08
73149;SHT30;61346;48.930;2.266;2022-09-09T05:28:43;17.46;72.18
73149;SHT30;61346;48.930;2.266;2022-09-09T05:31:12;17.43;72.18
73149;SHT30;61346;48.930;2.266;2022-09-09T05:33:39;17.47;72.18
73149;SHT30;61346;48.930;2.266;2022-09-09T05:36:11;17.53;72.18
73149;SHT30;61346;48.930;2.266;2022-09-09T05:38:49;17.51;72.20
73149;SHT30;61346;48.930;2.266;2022-09-09T05:44:49;17.62;71.91
73149;SHT30;61346;48.930;2.266;2022-09-09T05:47:26;17.65;71.89
73149;SHT30;61346;48.930;2.266;2022-09-09T05:50:01;17.69;71.74
73149;SHT30;61346;48.930;2.266;2022-09-09T05:52:29;17.76;71.76
73149;SHT30;61346;48.930;2.266;2022-09-09T05:54:55;17.78;71.84
73149;SHT30;61346;48.930;2.266;2022-09-09T05:57:32;17.78;71.84
73149;SHT30;61346;48.930;2.266;2022-09-09T06:00:12;17.86;71.78
73149;SHT30;61346;48.930;2.266;2022-09-09T06:02:40;17.88;71.68
73149;SHT30;61346;48.930;2.266;2022-09-09T06:05:07;17.87;71.74
73149;SHT30;61346;48.930;2.266;2022-09-09T06:08:21;17.94;71.55
73149;SHT30;61346;48.930;2.266;2022-09-09T07:04:51;18.90;69.86
73149;SHT30;61346;48.930;2.266;2022-09-09T07:49:16;19.70;68.29
73149;SHT30;61346;48.930;2.266;2022-09-09T07:55:14;19.72;67.93
73149;SHT30;61346;48.930;2.266;2022-09-09T08:01:38;19.63;67.78
73149;SHT30;61346;48.930;2.266;2022-09-09T08:08:03;19.69;67.79
73149;SHT30;61346;48.930;2.266;2022-09-09T08:14:24;19.76;67.71
73149;SHT30;61346;48.930;2.266;2022-09-09T08:16:56;19.80;67.79
73149;SHT30;61346;48.930;2.266;2022-09-09T08:22:34;19.84;67.26
73149;SHT30;61346;48.930;2.266;2022-09-09T08:27:52;19.93;67.47
73149;SHT30;61346;48.930;2.266;2022-09-09T08:30:44;20.06;67.31
73149;SHT30;61346;48.930;2.266;2022-09-09T08:40:20;20.51;66.71
73149;SHT30;61346;48.930;2.266;2022-09-09T08:42:55;20.68;66.56
73149;SHT30;61346;48.930;2.266;2022-09-09T08:45:49;20.77;66.31
73149;SHT30;61346;48.930;2.266;2022-09-09T08:48:43;20.89;65.87
73149;SHT30;61346;48.930;2.266;2022-09-09T08:51:34;20.84;65.56
73149;SHT30;61346;48.930;2.266;2022-09-09T08:54:11;20.84;65.61
73149;SHT30;61346;48.930;2.266;2022-09-09T08:56:41;20.94;65.60
73149;SHT30;61346;48.930;2.266;2022-09-09T08:59:27;20.99;65.18
73149;SHT30;61346;48.930;2.266;2022-09-09T09:05:15;21.04;65.15
73149;SHT30;61346;48.930;2.266;2022-09-09T09:08:17;21.18;64.60
73149;SHT30;61346;48.930;2.266;2022-09-09T09:11:09;21.41;64.72
73149;SHT30;61346;48.930;2.266;2022-09-09T09:14:05;21.68;64.58
73149;SHT30;61346;48.930;2.266;2022-09-09T09:17:05;21.82;64.37
73149;SHT30;61346;48.930;2.266;2022-09-09T09:19:48;21.94;64.15
73149;SHT30;61346;48.930;2.266;2022-09-09T09:22:35;22.07;63.54
73149;SHT30;61346;48.930;2.266;2022-09-09T09:25:41;22.18;63.10
73149;SHT30;61346;48.930;2.266;2022-09-09T09:31:05;22.18;62.75
73149;SHT30;61346;48.930;2.266;2022-09-09T09:33:45;22.27;62.40
73149;SHT30;61346;48.930;2.266;2022-09-09T09:36:12;22.37;62.26
73149;SHT30;61346;48.930;2.266;2022-09-09T09:38:52;22.37;61.79
73149;SHT30;61346;48.930;2.266;2022-09-09T09:41:41;22.40;61.82
73149;SHT30;61346;48.930;2.266;2022-09-09T09:44:26;22.41;62.30
73149;SHT30;61346;48.930;2.266;2022-09-09T09:47:06;22.43;61.56
73149;SHT30;61346;48.930;2.266;2022-09-09T09:49:59;22.37;61.43
73149;SHT30;61346;48.930;2.266;2022-09-09T09:52:33;22.36;61.54
73149;SHT30;61346;48.930;2.266;2022-09-09T09:55:13;22.41;61.40
73149;SHT30;61346;48.930;2.266;2022-09-09T09:57:39;22.47;61.27
73149;SHT30;61346;48.930;2.266;2022-09-09T10:00:16;22.47;61.18
73149;SHT30;61346;48.930;2.266;2022-09-09T10:06:35;22.18;60.92
73149;SHT30;61346;48.930;2.266;2022-09-09T10:18:58;22.55;61.07
73149;SHT30;61346;48.930;2.266;2022-09-09T16:13:36;21.69;62.60
73149;SHT30;61346;48.930;2.266;2022-09-09T21:00:10;18.33;71.83
73149;SHT30;61346;48.930;2.266;2022-09-09T21:02:48;18.38;71.85
73149;SHT30;61346;48.930;2.266;2022-09-09T21:05:22;18.38;72.04
73149;SHT30;61346;48.930;2.266;2022-09-09T21:07:50;18.41;71.99
73149;SHT30;61346;48.930;2.266;2022-09-09T21:10:15;18.42;72.04
73149;SHT30;61346;48.930;2.266;2022-09-09T21:12:44;18.43;71.90
73149;SHT30;61346;48.930;2.266;2022-09-09T21:15:16;18.42;71.94
73149;SHT30;61346;48.930;2.266;2022-09-09T21:17:41;18.41;71.84
73149;SHT30;61346;48.930;2.266;2022-09-09T21:20:07;18.35;71.95
73149;SHT30;61346;48.930;2.266;2022-09-09T21:22:39;18.32;72.05
73149;SHT30;61346;48.930;2.266;2022-09-09T21:25:18;18.29;72.17
73149;SHT30;61346;48.930;2.266;2022-09-09T21:27:44;18.25;72.17
73149;SHT30;61346;48.930;2.266;2022-09-09T21:30:11;18.21;72.25
73149;SHT30;61346;48.930;2.266;2022-09-09T21:32:39;18.18;72.24
73149;SHT30;61346;48.930;2.266;2022-09-09T21:35:26;18.16;72.22
73149;SHT30;61346;48.930;2.266;2022-09-09T21:37:52;18.11;72.45
73149;SHT30;61346;48.930;2.266;2022-09-09T21:40:21;18.12;72.41
73149;SHT30;61346;48.930;2.266;2022-09-09T21:42:49;18.12;72.09
73149;SHT30;61346;48.930;2.266;2022-09-09T21:45:16;18.11;72.18
73149;SHT30;61346;48.930;2.266;2022-09-09T21:47:45;18.06;72.24
73149;SHT30;61346;48.930;2.266;2022-09-09T21:50:14;18.02;72.29
73149;SHT30;61346;48.930;2.266;2022-09-09T21:52:43;18.02;72.38
73149;SHT30;61346;48.930;2.266;2022-09-09T21:55:09;18.00;72.46
73149;SHT30;61346;48.930;2.266;2022-09-09T21:57:39;17.97;72.23
73149;SHT30;61346;48.930;2.266;2022-09-09T22:00:10;17.98;72.37
73149;SHT30;61346;48.930;2.266;2022-09-09T22:02:46;17.95;72.39
73149;SHT30;61346;48.930;2.266;2022-09-09T22:05:43;17.95;72.38
73149;SHT30;61346;48.930;2.266;2022-09-09T22:08:21;17.93;72.39
73149;SHT30;61346;48.930;2.266;2022-09-09T22:11:25;17.87;72.51
73149;SHT30;61346;48.930;2.266;2022-09-09T22:13:59;17.88;72.55
73149;SHT30;61346;48.930;2.266;2022-09-09T22:16:28;17.86;72.55
73149;SHT30;61346;48.930;2.266;2022-09-09T22:18:59;17.83;72.38
73149;SHT30;61346;48.930;2.266;2022-09-09T22:21:28;17.80;72.44
73149;SHT30;61346;48.930;2.266;2022-09-09T22:24:12;17.81;72.47
73149;SHT30;61346;48.930;2.266;2022-09-09T22:26:38;17.80;72.43
73149;SHT30;61346;48.930;2.266;2022-09-09T22:29:05;17.78;72.42
73149;SHT30;61346;48.930;2.266;2022-09-09T22:31:36;17.78;72.38
73149;SHT30;61346;48.930;2.266;2022-09-09T22:34:06;17.77;72.49
73149;SHT30;61346;48.930;2.266;2022-09-09T22:36:35;17.76;72.36
73149;SHT30;61346;48.930;2.266;2022-09-09T22:39:01;17.73;72.36
73149;SHT30;61346;48.930;2.266;2022-09-09T22:41:26;17.73;72.30
73149;SHT30;61346;48.930;2.266;2022-09-09T22:43:54;17.73;72.29
73149;SHT30;61346;48.930;2.266;2022-09-09T22:46:43;17.69;72.31
73149;SHT30;61346;48.930;2.266;2022-09-09T22:49:10;17.66;72.34
73149;SHT30;61346;48.930;2.266;2022-09-09T22:51:44;17.66;72.31
73149;SHT30;61346;48.930;2.266;2022-09-09T22:54:59;17.60;72.35
73149;SHT30;61346;48.930;2.266;2022-09-09T22:57:25;17.59;72.33
73149;SHT30;61346;48.930;2.266;2022-09-09T22:59:52;17.57;72.49
73149;SHT30;61346;48.930;2.266;2022-09-09T23:02:20;17.54;72.30
73149;SHT30;61346;48.930;2.266;2022-09-09T23:04:47;17.54;72.46
73149;SHT30;61346;48.930;2.266;2022-09-09T23:07:13;17.53;72.44
73149;SHT30;61346;48.930;2.266;2022-09-09T23:09:47;17.54;72.54
73149;SHT30;61346;48.930;2.266;2022-09-09T23:12:13;17.50;72.55
73149;SHT30;61346;48.930;2.266;2022-09-09T23:14:39;17.47;72.47
73149;SHT30;61346;48.930;2.266;2022-09-09T23:17:04;17.46;72.49
73149;SHT30;61346;48.930;2.266;2022-09-09T23:19:32;17.45;72.52
73149;SHT30;61346;48.930;2.266;2022-09-09T23:21:59;17.46;72.42
73149;SHT30;61346;48.930;2.266;2022-09-09T23:24:28;17.43;72.59
73149;SHT30;61346;48.930;2.266;2022-09-09T23:26:57;17.40;72.54
73149;SHT30;61346;48.930;2.266;2022-09-09T23:29:43;17.39;72.60
73149;SHT30;61346;48.930;2.266;2022-09-09T23:32:09;17.36;72.44
73149;SHT30;61346;48.930;2.266;2022-09-09T23:34:38;17.36;72.56
73149;SHT30;61346;48.930;2.266;2022-09-09T23:37:04;17.35;72.68
73149;SHT30;61346;48.930;2.266;2022-09-09T23:39:30;17.32;72.70
73149;SHT30;61346;48.930;2.266;2022-09-09T23:41:56;17.31;72.74
73149;SHT30;61346;48.930;2.266;2022-09-09T23:44:23;17.26;72.74
73149;SHT30;61346;48.930;2.266;2022-09-09T23:46:48;17.25;72.95
73149;SHT30;61346;48.930;2.266;2022-09-09T23:49:18;17.21;72.95
73149;SHT30;61346;48.930;2.266;2022-09-09T23:52:03;17.22;72.93
73149;SHT30;61346;48.930;2.266;2022-09-09T23:54:34;17.21;72.97
73149;SHT30;61346;48.930;2.266;2022-09-09T23:57:00;17.18;72.90
73149;SHT30;61346;48.930;2.266;2022-09-09T23:59:33;17.18;73.02
